createdAt,value
2022-08-25T00:00:13.242Z,20.11
2022-08-25T00:05:07.085Z,19.97
2022-08-25T00:07:36.359Z,19.94
2022-08-25T00:10:04.200Z,19.90
2022-08-25T00:14:56.984Z,19.83
2022-08-25T00:17:23.414Z,19.80
2022-08-25T00:19:50.005Z,19.74
2022-08-25T00:22:16.515Z,19.69
2022-08-25T00:24:43.034Z,19.69
2022-08-25T00:27:11.028Z,19.75
2022-08-25T00:29:38.231Z,19.73
2022-08-25T00:32:05.649Z,19.73
2022-08-25T00:34:35.345Z,19.73
2022-08-25T00:37:03.743Z,19.74
2022-08-25T00:39:30.497Z,19.76
2022-08-25T00:41:58.104Z,19.82
2022-08-25T00:46:56.297Z,19.75
2022-08-25T00:49:49.506Z,19.71
2022-08-25T00:52:29.488Z,19.72
2022-08-25T00:55:07.737Z,19.70
2022-08-25T01:02:33.450Z,19.61
2022-08-25T01:04:59.959Z,19.66
2022-08-25T01:07:26.383Z,19.63
2022-08-25T01:09:53.302Z,19.56
2022-08-25T01:12:20.796Z,19.57
2022-08-25T01:14:48.855Z,19.52
2022-08-25T01:17:15.906Z,19.44
2022-08-25T01:19:42.495Z,19.44
2022-08-25T01:22:10.546Z,19.38
2022-08-25T01:25:01.796Z,19.33
2022-08-25T01:27:28.230Z,19.31
2022-08-25T01:29:55.196Z,19.31
2022-08-25T01:32:21.610Z,19.29
2022-08-25T01:34:48.316Z,19.27
2022-08-25T01:37:19.140Z,19.22
2022-08-25T01:42:12.124Z,19.12
2022-08-25T01:44:41.759Z,19.09
2022-08-25T01:47:08.727Z,19.04
2022-08-25T01:49:36.200Z,18.92
2022-08-25T01:52:12.651Z,18.90
2022-08-25T01:54:39.189Z,18.90
2022-08-25T01:57:05.631Z,18.85
2022-08-25T01:59:32.393Z,18.80
2022-08-25T02:02:00.180Z,18.77
2022-08-25T02:04:31.897Z,18.70
2022-08-25T02:07:00.003Z,18.71
2022-08-25T02:09:26.408Z,18.70
2022-08-25T02:11:52.940Z,18.74
2022-08-25T02:14:19.966Z,18.73
2022-08-25T02:16:49.760Z,18.74
2022-08-25T02:19:16.330Z,18.73
2022-08-25T02:21:43.376Z,18.74
2022-08-25T02:24:10.567Z,18.75
2022-08-25T02:26:37.478Z,18.74
2022-08-25T02:29:06.612Z,18.67
2022-08-25T02:31:33.366Z,18.58
2022-08-25T02:33:59.946Z,18.53
2022-08-25T02:36:26.785Z,18.47
2022-08-25T02:38:53.230Z,18.44
2022-08-25T02:41:23.675Z,18.36
2022-08-25T02:43:57.821Z,18.27
2022-08-25T02:46:24.948Z,18.15
2022-08-25T02:48:53.055Z,18.04
2022-08-25T02:51:21.934Z,18.04
2022-08-25T02:56:16.365Z,17.97
2022-08-25T02:58:43.068Z,17.96
2022-08-25T03:03:40.360Z,17.88
2022-08-25T03:06:09.551Z,17.85
2022-08-25T03:08:37.652Z,17.81
2022-08-25T03:11:05.688Z,17.72
2022-08-25T03:13:32.796Z,17.70
2022-08-25T03:16:00.552Z,17.70
2022-08-25T03:18:27.578Z,17.67
2022-08-25T03:20:55.028Z,17.65
2022-08-25T03:23:21.602Z,17.65
2022-08-25T03:26:06.303Z,17.65
2022-08-25T03:31:01.095Z,17.61
2022-08-25T03:33:31.586Z,17.57
2022-08-25T03:35:59.171Z,17.57
2022-08-25T03:38:26.825Z,17.57
2022-08-25T03:40:53.569Z,17.55
2022-08-25T03:43:20.563Z,17.52
2022-08-25T03:45:47.772Z,17.49
2022-08-25T03:48:16.060Z,17.47
2022-08-25T03:50:50.719Z,17.41
2022-08-25T03:53:20.170Z,17.38
2022-08-25T03:55:47.208Z,17.33
2022-08-25T03:58:14.048Z,17.30
2022-08-25T04:00:40.793Z,17.27
2022-08-25T04:03:07.640Z,17.25
2022-08-25T04:05:34.151Z,17.22
2022-08-25T04:08:01.794Z,17.17
2022-08-25T04:10:29.585Z,17.15
2022-08-25T04:12:57.133Z,17.08
2022-08-25T04:15:24.839Z,17.06
2022-08-25T04:17:55.166Z,17.04
2022-08-25T04:20:22.029Z,17.02
2022-08-25T04:22:48.467Z,16.98
2022-08-25T04:25:14.952Z,16.96
2022-08-25T04:27:41.784Z,16.95
2022-08-25T04:30:08.834Z,17.01
2022-08-25T04:35:04.295Z,16.92
2022-08-25T04:37:30.761Z,16.92
2022-08-25T04:39:57.242Z,16.83
2022-08-25T04:42:23.764Z,16.87
2022-08-25T04:44:50.155Z,16.91
2022-08-25T04:47:16.596Z,16.96
2022-08-25T04:49:43.359Z,16.95
2022-08-25T04:52:13.045Z,16.87
2022-08-25T04:54:41.143Z,16.91
2022-08-25T04:57:07.546Z,16.89
2022-08-25T04:59:34.111Z,17.00
2022-08-25T05:02:05.259Z,16.95
2022-08-25T05:06:59.250Z,16.98
2022-08-25T05:09:26.491Z,16.94
2022-08-25T05:11:53.791Z,16.95
2022-08-25T05:14:25.633Z,17.05
2022-08-25T05:16:54.090Z,17.11
2022-08-25T05:19:20.631Z,17.16
2022-08-25T05:21:47.106Z,17.21
2022-08-25T05:24:13.564Z,17.23
2022-08-25T05:26:40.024Z,17.29
2022-08-25T05:31:38.461Z,17.42
2022-08-25T05:34:08.822Z,17.49
2022-08-25T05:36:35.616Z,17.60
2022-08-25T05:39:03.676Z,17.67
2022-08-25T05:41:31.363Z,17.75
2022-08-25T05:43:58.056Z,17.91
2022-08-25T05:46:25.258Z,17.97
2022-08-25T05:48:52.489Z,18.03
2022-08-25T05:51:19.860Z,18.12
2022-08-25T05:53:48.269Z,18.23
2022-08-25T05:58:42.824Z,18.34
2022-08-25T06:03:54.842Z,18.51
2022-08-25T06:06:23.273Z,18.62
2022-08-25T06:08:50.048Z,18.72
2022-08-25T06:11:16.576Z,18.82
2022-08-25T06:13:43.241Z,18.90
2022-08-25T06:18:36.248Z,19.15
2022-08-25T06:21:14.077Z,19.28
2022-08-25T06:26:13.136Z,19.48
2022-08-25T06:28:47.184Z,19.57
2022-08-25T06:31:13.773Z,19.62
2022-08-25T06:36:07.564Z,19.82
2022-08-25T06:38:34.067Z,19.96
2022-08-25T06:43:34.529Z,20.22
2022-08-25T06:46:11.506Z,20.23
2022-08-25T06:51:09.255Z,20.45
2022-08-25T06:53:40.274Z,20.56
2022-08-25T06:56:06.983Z,20.67
2022-08-25T06:58:33.803Z,20.80
2022-08-25T07:01:15.733Z,20.91
2022-08-25T07:03:46.173Z,21.10
2022-08-25T07:06:14.351Z,21.21
2022-08-25T07:08:43.150Z,21.33
2022-08-25T07:11:16.228Z,21.44
2022-08-25T07:13:45.425Z,21.55
2022-08-25T07:18:38.707Z,21.67
2022-08-25T07:21:05.386Z,21.84
2022-08-25T07:23:35.816Z,21.95
2022-08-25T07:26:36.937Z,21.99
2022-08-25T07:29:03.116Z,22.12
2022-08-25T07:31:29.956Z,22.21
2022-08-25T07:34:16.432Z,22.30
2022-08-25T07:36:43.293Z,22.34
2022-08-25T07:39:09.708Z,22.42
2022-08-25T07:44:04.742Z,22.61
2022-08-25T07:46:31.231Z,22.75
2022-08-25T07:53:53.917Z,23.04
2022-08-25T07:58:47.461Z,23.17
2022-08-25T08:03:50.378Z,23.24
2022-08-25T08:06:20.771Z,23.27
2022-08-25T08:11:34.397Z,23.43
2022-08-25T08:16:29.801Z,23.49
2022-08-25T08:18:57.838Z,23.52
2022-08-25T08:23:59.031Z,23.71
2022-08-25T08:26:48.088Z,23.88
2022-08-25T08:29:16.227Z,24.11
2022-08-25T08:31:48.550Z,24.23
2022-08-25T08:34:16.467Z,24.24
2022-08-25T08:39:11.734Z,24.32
2022-08-25T08:42:12.144Z,24.38
2022-08-25T08:47:36.186Z,24.50
2022-08-25T08:50:30.693Z,24.46
2022-08-25T08:58:09.399Z,24.58
2022-08-25T09:00:52.055Z,24.64
2022-08-25T09:05:59.415Z,24.89
2022-08-25T09:08:26.712Z,25.01
2022-08-25T09:11:10.123Z,25.15
2022-08-25T09:13:55.256Z,25.25
2022-08-25T09:16:55.993Z,25.36
2022-08-25T09:19:25.477Z,25.57
2022-08-25T09:22:00.990Z,25.60
2022-08-25T09:27:17.807Z,25.76
2022-08-25T09:30:25.067Z,25.73
2022-08-25T09:42:59.763Z,26.01
2022-08-25T09:48:00.791Z,26.00
2022-08-25T09:53:15.253Z,26.21
2022-08-25T09:55:46.460Z,26.37
2022-08-25T10:06:23.841Z,26.53
2022-08-25T10:08:50.768Z,26.47
2022-08-25T10:14:16.611Z,26.64
2022-08-25T10:24:49.010Z,26.98
2022-08-25T10:30:03.093Z,27.12
2022-08-25T10:32:49.406Z,27.24
2022-08-25T10:51:18.089Z,27.61
2022-08-25T10:56:33.246Z,27.47
2022-08-25T10:59:39.902Z,27.55
2022-08-25T11:12:30.255Z,27.60
2022-08-25T11:20:26.894Z,27.51
2022-08-25T11:26:02.158Z,27.64
2022-08-25T11:28:53.564Z,27.64
2022-08-25T11:31:22.765Z,27.65
2022-08-25T11:33:50.980Z,27.72
2022-08-25T11:36:35.370Z,27.77
2022-08-25T11:39:17.721Z,27.94
2022-08-25T11:42:17.107Z,28.16
2022-08-25T11:44:53.380Z,28.12
2022-08-25T11:47:38.960Z,28.13
2022-08-25T11:52:59.948Z,27.94
2022-08-25T11:55:51.779Z,28.03
2022-08-25T11:58:33.027Z,28.37
2022-08-25T12:01:02.156Z,28.25
2022-08-25T12:14:38.196Z,28.63
2022-08-25T12:24:47.712Z,28.92
2022-08-25T12:27:33.610Z,28.84
2022-08-25T12:33:16.132Z,28.79
2022-08-25T12:35:59.316Z,28.77
2022-08-25T12:38:47.274Z,28.56
2022-08-25T12:41:26.416Z,28.49
2022-08-25T12:48:58.106Z,28.46
2022-08-25T12:56:59.096Z,28.62
2022-08-25T12:59:31.374Z,28.63
2022-08-25T13:04:48.239Z,28.54
2022-08-25T13:10:06.783Z,28.60
2022-08-25T13:13:06.854Z,28.60
2022-08-25T13:24:01.483Z,28.62
2022-08-25T13:29:26.072Z,28.63
2022-08-25T13:31:54.833Z,28.62
2022-08-25T13:40:27.696Z,28.58
2022-08-25T13:43:09.299Z,28.59
2022-08-25T13:50:51.613Z,28.82
2022-08-25T13:53:25.050Z,28.78
2022-08-25T13:55:54.656Z,28.84
2022-08-25T13:58:39.421Z,28.82
2022-08-25T14:01:48.372Z,28.77
2022-08-25T14:04:20.975Z,28.90
2022-08-25T14:06:47.724Z,29.15
2022-08-25T14:09:17.857Z,29.05
2022-08-25T14:11:56.926Z,28.90
2022-08-25T14:14:23.283Z,28.91
2022-08-25T14:16:54.186Z,28.96
2022-08-25T14:19:24.609Z,28.92
2022-08-25T14:24:23.775Z,28.94
2022-08-25T14:29:22.094Z,28.85
2022-08-25T14:31:53.456Z,28.93
2022-08-25T14:34:24.046Z,28.89
2022-08-25T14:36:51.039Z,28.89
2022-08-25T14:39:18.209Z,28.80
2022-08-25T14:41:48.717Z,28.77
2022-08-25T14:44:20.322Z,28.74
2022-08-25T14:46:53.989Z,28.72
2022-08-25T14:51:53.662Z,28.63
2022-08-25T14:54:24.909Z,28.56
2022-08-25T15:01:45.609Z,28.46
2022-08-25T15:14:09.472Z,28.53
2022-08-25T15:16:41.877Z,28.62
2022-08-25T15:21:37.447Z,28.45
2022-08-25T15:24:09.264Z,28.40
2022-08-25T15:29:12.074Z,28.21
2022-08-25T15:31:39.848Z,28.14
2022-08-25T15:36:38.802Z,28.12
2022-08-25T15:39:06.387Z,28.15
2022-08-25T15:46:29.996Z,28.20
2022-08-25T15:51:28.303Z,28.38
2022-08-25T15:56:26.718Z,28.51
2022-08-25T15:58:55.247Z,28.58
2022-08-25T16:08:45.004Z,28.77
2022-08-25T16:11:20.897Z,28.74
2022-08-25T16:16:15.533Z,28.72
2022-08-25T16:18:43.646Z,28.77
2022-08-25T16:28:43.954Z,28.74
2022-08-25T16:31:12.614Z,28.68
2022-08-25T16:33:39.672Z,28.65
2022-08-25T16:36:33.215Z,28.61
2022-08-25T16:39:00.877Z,28.56
2022-08-25T16:41:35.889Z,28.50
2022-08-25T16:44:07.615Z,28.47
2022-08-25T16:51:33.472Z,28.47
2022-08-25T16:56:49.472Z,28.38
2022-08-25T16:59:21.437Z,28.36
2022-08-25T17:04:17.617Z,28.43
2022-08-25T17:06:49.347Z,28.38
2022-08-25T17:11:52.545Z,28.30
2022-08-25T17:16:48.407Z,28.23
2022-08-25T17:21:46.046Z,28.22
2022-08-25T17:24:13.846Z,28.11
2022-08-25T17:29:08.041Z,27.98
2022-08-25T17:31:39.396Z,27.88
2022-08-25T17:34:08.534Z,27.91
2022-08-25T17:39:03.270Z,27.83
2022-08-25T17:41:30.055Z,27.78
2022-08-25T17:43:57.203Z,27.76
2022-08-25T17:46:23.966Z,27.72
2022-08-25T17:56:16.801Z,27.36
2022-08-25T17:58:44.391Z,27.27
2022-08-25T18:01:29.273Z,27.20
2022-08-25T18:03:57.362Z,27.17
2022-08-25T18:08:54.469Z,27.08
2022-08-25T18:11:25.213Z,27.03
2022-08-25T18:13:53.596Z,26.95
2022-08-25T18:16:21.306Z,26.87
2022-08-25T18:18:48.408Z,26.76
2022-08-25T18:21:17.058Z,26.64
2022-08-25T18:23:44.899Z,26.49
2022-08-25T18:26:13.183Z,26.37
2022-08-25T18:28:40.153Z,26.32
2022-08-25T18:31:11.885Z,26.19
2022-08-25T18:33:41.553Z,26.10
2022-08-25T18:36:09.621Z,25.95
2022-08-25T18:38:57.939Z,25.77
2022-08-25T18:41:26.302Z,25.67
2022-08-25T18:43:53.139Z,25.55
2022-08-25T18:46:22.514Z,25.46
2022-08-25T18:48:49.895Z,25.34
2022-08-25T18:51:19.480Z,25.24
2022-08-25T18:56:19.345Z,25.17
2022-08-25T18:58:46.893Z,25.16
2022-08-25T19:01:15.665Z,25.15
2022-08-25T19:06:09.783Z,25.21
2022-08-25T19:08:39.353Z,25.19
2022-08-25T19:11:08.548Z,25.15
2022-08-25T19:13:35.075Z,25.18
2022-08-25T19:16:20.387Z,25.15
2022-08-25T19:18:48.911Z,25.14
2022-08-25T19:23:50.203Z,25.05
2022-08-25T19:26:17.958Z,25.03
2022-08-25T19:28:50.416Z,24.99
2022-08-25T19:31:19.020Z,24.97
2022-08-25T19:33:47.838Z,24.94
2022-08-25T19:36:17.187Z,24.86
2022-08-25T19:41:14.582Z,24.73
2022-08-25T19:43:55.620Z,24.69
2022-08-25T19:49:08.841Z,24.61
2022-08-25T19:51:43.934Z,24.56
2022-08-25T19:54:16.418Z,24.48
2022-08-25T19:56:54.384Z,24.40
2022-08-25T19:59:42.328Z,24.33
2022-08-25T20:02:15.324Z,24.26
2022-08-25T20:04:42.929Z,24.22
2022-08-25T20:07:16.908Z,24.17
2022-08-25T20:09:45.132Z,24.07
2022-08-25T20:12:12.152Z,24.03
2022-08-25T20:14:39.146Z,24.00
2022-08-25T20:24:56.173Z,23.71
2022-08-25T20:27:34.857Z,23.65
2022-08-25T20:30:03.625Z,23.65
2022-08-25T20:32:32.398Z,23.64
2022-08-25T20:34:59.896Z,23.59
2022-08-25T20:37:26.492Z,23.59
2022-08-25T20:39:52.987Z,23.55
2022-08-25T20:42:19.594Z,23.52
2022-08-25T20:44:46.972Z,23.49
2022-08-25T20:47:14.776Z,23.47
2022-08-25T20:49:44.405Z,23.39
2022-08-25T20:52:11.906Z,23.38
2022-08-25T20:54:38.596Z,23.31
2022-08-25T20:57:05.480Z,23.27
2022-08-25T20:59:34.473Z,23.28
2022-08-25T21:02:00.969Z,23.21
2022-08-25T21:07:00.189Z,23.10
2022-08-25T21:09:27.976Z,23.08
2022-08-25T21:11:56.409Z,23.05
2022-08-25T21:14:24.745Z,23.03
2022-08-25T21:16:53.267Z,22.96
2022-08-25T21:19:26.406Z,22.94
2022-08-25T21:24:26.201Z,22.85
2022-08-25T21:26:55.759Z,22.74
2022-08-25T21:31:50.945Z,22.65
2022-08-25T21:34:18.687Z,22.61
2022-08-25T21:36:45.793Z,22.61
2022-08-25T21:39:13.120Z,22.53
2022-08-25T21:41:42.645Z,22.49
2022-08-25T21:44:10.245Z,22.42
2022-08-25T21:46:36.981Z,22.36
2022-08-25T21:49:06.518Z,22.31
2022-08-25T21:51:40.731Z,22.16
2022-08-25T21:54:11.237Z,22.03
2022-08-25T21:56:43.589Z,21.95
2022-08-25T21:59:14.945Z,21.92
2022-08-25T22:01:42.740Z,21.89
2022-08-25T22:04:11.887Z,21.85
2022-08-25T22:06:39.021Z,21.82
2022-08-25T22:09:07.385Z,21.76
2022-08-25T22:11:36.167Z,21.69
2022-08-25T22:16:31.823Z,21.50
2022-08-25T22:18:59.361Z,21.47
2022-08-25T22:21:27.827Z,21.36
2022-08-25T22:23:58.803Z,21.30
2022-08-25T22:26:28.899Z,21.26
2022-08-25T22:28:57.425Z,21.21
2022-08-25T22:31:25.006Z,21.13
2022-08-25T22:33:52.276Z,21.10
2022-08-25T22:36:31.463Z,21.03
2022-08-25T22:38:58.516Z,20.97
2022-08-25T22:41:27.076Z,20.87
2022-08-25T22:46:22.878Z,20.70
2022-08-25T22:48:50.386Z,20.65
2022-08-25T22:51:21.756Z,20.56
2022-08-25T22:53:49.101Z,20.51
2022-08-25T22:56:18.823Z,20.45
2022-08-25T23:01:19.921Z,20.36
2022-08-25T23:03:47.593Z,20.33
2022-08-25T23:06:24.490Z,20.34
2022-08-25T23:11:21.101Z,20.25
2022-08-25T23:13:47.578Z,20.23
2022-08-25T23:16:15.062Z,20.21
2022-08-25T23:18:43.937Z,20.17
2022-08-25T23:21:29.926Z,20.16
2022-08-25T23:24:01.876Z,20.14
2022-08-25T23:26:29.375Z,20.09
2022-08-25T23:28:55.916Z,20.03
2022-08-25T23:31:22.326Z,19.99
2022-08-25T23:33:50.769Z,19.90
2022-08-25T23:36:17.391Z,19.85
2022-08-25T23:38:46.108Z,19.84
2022-08-25T23:46:18.028Z,19.78
2022-08-25T23:48:44.674Z,19.74
2022-08-25T23:51:11.410Z,19.67
2022-08-25T23:53:38.421Z,19.64
2022-08-25T23:56:06.112Z,19.60
2022-08-25T23:58:32.681Z,19.57
